createdAt,value
2019-01-25T00:00:00.790Z,20.49
2019-01-25T00:05:06.435Z,20.47
2019-01-25T00:10:10.649Z,20.51
2019-01-25T00:15:15.418Z,20.43
2019-01-25T00:20:19.627Z,20.50
2019-01-25T00:25:23.852Z,20.53
2019-01-25T00:30:28.128Z,20.40
2019-01-25T00:35:32.178Z,20.40
2019-01-25T00:40:36.392Z,20.50
2019-01-25T00:45:40.533Z,20.42
2019-01-25T00:50:44.646Z,20.44
2019-01-25T00:55:48.934Z,20.45
2019-01-25T01:00:53.187Z,20.42
2019-01-25T01:05:57.432Z,20.34
2019-01-25T01:11:01.695Z,20.34
2019-01-25T01:16:05.913Z,20.16
2019-01-25T01:21:10.105Z,20.21
2019-01-25T01:26:14.313Z,20.17
2019-01-25T01:31:18.600Z,20.16
2019-01-25T01:36:22.718Z,20.15
2019-01-25T01:41:26.983Z,20.15
2019-01-25T01:46:31.202Z,20.02
2019-01-25T01:51:35.349Z,20.07
2019-01-25T01:56:39.504Z,20.12
2019-01-25T02:01:43.863Z,20.04
2019-01-25T02:06:48.045Z,20.06
2019-01-25T02:11:52.377Z,20.02
2019-01-25T02:16:56.678Z,20.03
2019-01-25T02:22:01.054Z,19.95
2019-01-25T02:27:05.310Z,20.01
2019-01-25T02:32:09.619Z,19.93
2019-01-25T02:37:13.819Z,20.00
2019-01-25T02:42:18.223Z,19.99
2019-01-25T02:47:22.382Z,19.97
2019-01-25T02:52:26.593Z,19.97
2019-01-25T02:57:30.817Z,19.94
2019-01-25T03:02:34.933Z,19.92
2019-01-25T03:07:39.143Z,19.92
2019-01-25T03:12:43.632Z,19.91
2019-01-25T03:17:48.096Z,19.90
2019-01-25T03:22:52.439Z,19.88
2019-01-25T03:27:56.835Z,19.86
2019-01-25T03:33:01.031Z,19.84
2019-01-25T03:38:05.714Z,19.81
2019-01-25T03:43:10.148Z,19.79
2019-01-25T03:48:14.466Z,19.78
2019-01-25T03:53:18.757Z,19.76
2019-01-25T03:58:23.039Z,19.75
2019-01-25T04:03:27.381Z,19.73
2019-01-25T04:08:31.581Z,19.70
2019-01-25T04:13:35.778Z,19.70
2019-01-25T04:18:40.104Z,19.69
2019-01-25T04:23:44.339Z,19.71
2019-01-25T04:28:48.455Z,19.71
2019-01-25T04:33:52.876Z,19.71
2019-01-25T04:38:57.065Z,19.71
2019-01-25T04:44:01.328Z,19.64
2019-01-25T04:49:05.600Z,19.70
2019-01-25T04:54:09.928Z,19.67
2019-01-25T04:59:14.242Z,19.65
2019-01-25T05:04:18.543Z,19.64
2019-01-25T05:09:22.732Z,19.61
2019-01-25T05:14:31.077Z,19.60
2019-01-25T05:19:41.647Z,19.58
2019-01-25T05:24:45.805Z,19.47
2019-01-25T05:29:52.470Z,19.54
2019-01-25T05:34:56.586Z,19.42
2019-01-25T05:40:00.699Z,19.50
2019-01-25T05:45:10.443Z,19.49
2019-01-25T05:50:14.797Z,19.49
2019-01-25T05:55:20.392Z,19.48
2019-01-25T06:00:28.686Z,19.46
2019-01-25T06:05:32.928Z,19.46
2019-01-25T06:10:37.107Z,19.45
2019-01-25T06:15:41.209Z,19.43
2019-01-25T06:20:50.000Z,19.42
2019-01-25T06:25:55.596Z,19.42
2019-01-25T06:30:59.778Z,19.40
2019-01-25T06:36:04.435Z,19.38
2019-01-25T06:41:09.111Z,19.37
2019-01-25T06:46:13.310Z,19.28
2019-01-25T06:51:17.405Z,19.35
2019-01-25T06:56:21.522Z,19.26
2019-01-25T07:01:43.599Z,19.32
2019-01-25T07:06:47.787Z,19.30
2019-01-25T07:11:52.073Z,19.28
2019-01-25T07:16:56.262Z,19.28
2019-01-25T07:22:00.289Z,19.25
2019-01-25T07:27:04.422Z,19.25
2019-01-25T07:32:08.609Z,19.14
2019-01-25T07:37:12.786Z,19.14
2019-01-25T07:42:17.270Z,19.21
2019-01-25T07:47:21.409Z,19.21
2019-01-25T07:52:25.868Z,19.10
2019-01-25T07:57:29.874Z,19.10
2019-01-25T08:02:33.903Z,19.18
2019-01-25T08:07:38.163Z,19.18
2019-01-25T08:12:42.392Z,19.13
2019-01-25T08:17:46.604Z,19.03
2019-01-25T08:22:50.993Z,19.61
2019-01-25T08:27:55.169Z,20.48
2019-01-25T08:32:59.381Z,16.26
2019-01-25T08:38:03.608Z,11.54
2019-01-25T08:43:08.983Z,10.29
2019-01-25T08:48:13.242Z,11.48
2019-01-25T08:53:18.917Z,16.54
2019-01-25T08:58:23.137Z,18.48
2019-01-25T09:03:27.285Z,19.51
2019-01-25T09:08:31.421Z,19.42
2019-01-25T09:13:35.551Z,19.20
2019-01-25T09:18:39.691Z,19.34
2019-01-25T09:23:43.856Z,20.27
2019-01-25T09:28:47.963Z,20.63
2019-01-25T09:33:52.191Z,20.63
2019-01-25T09:38:56.267Z,20.61
2019-01-25T09:44:00.347Z,20.61
2019-01-25T09:49:04.656Z,20.43
2019-01-25T09:54:08.796Z,20.63
2019-01-25T09:59:12.864Z,20.71
2019-01-25T10:04:16.956Z,20.81
2019-01-25T10:09:21.210Z,20.59
2019-01-25T10:14:25.335Z,20.59
2019-01-25T10:19:29.555Z,20.46
2019-01-25T10:24:33.840Z,20.41
2019-01-25T10:29:37.957Z,20.60
2019-01-25T10:34:42.106Z,20.57
2019-01-25T10:39:46.171Z,20.73
2019-01-25T10:44:50.274Z,20.73
2019-01-25T10:49:54.502Z,20.83
2019-01-25T10:54:58.565Z,20.78
2019-01-25T11:00:02.912Z,20.50
2019-01-25T11:05:09.277Z,20.48
2019-01-25T11:10:13.650Z,20.48
2019-01-25T11:15:19.902Z,20.35
2019-01-25T11:20:24.558Z,20.90
2019-01-25T11:25:31.522Z,21.06
2019-01-25T11:30:35.996Z,21.10
2019-01-25T11:35:40.198Z,20.99
2019-01-25T11:40:45.045Z,20.92
2019-01-25T11:45:54.261Z,20.80
2019-01-25T11:50:55.123Z,20.76
2019-01-25T11:55:59.215Z,20.58
2019-01-25T12:01:03.869Z,20.54
2019-01-25T12:06:08.248Z,20.42
2019-01-25T12:11:12.471Z,20.55
2019-01-25T12:16:16.505Z,20.55
2019-01-25T12:21:20.866Z,20.77
2019-01-25T12:26:25.003Z,21.03
2019-01-25T12:31:29.208Z,20.89
2019-01-25T12:36:33.270Z,20.89
2019-01-25T12:41:37.431Z,20.59
2019-01-25T12:46:41.616Z,20.53
2019-01-25T12:51:52.831Z,20.36
2019-01-25T12:56:57.019Z,20.33
2019-01-25T13:02:01.224Z,20.33
2019-01-25T13:07:05.807Z,20.69
2019-01-25T13:12:10.081Z,20.96
2019-01-25T13:17:14.716Z,21.05
2019-01-25T13:22:19.038Z,20.95
2019-01-25T13:27:23.261Z,20.95
2019-01-25T13:32:27.302Z,20.91
2019-01-25T13:37:31.612Z,20.94
2019-01-25T13:42:35.872Z,20.74
2019-01-25T13:47:40.068Z,20.77
2019-01-25T13:52:44.216Z,20.77
2019-01-25T13:57:48.448Z,20.77
2019-01-25T14:02:52.663Z,21.06
2019-01-25T14:07:56.991Z,21.06
2019-01-25T14:13:01.528Z,21.25
2019-01-25T14:18:06.522Z,21.25
2019-01-25T14:23:10.952Z,21.08
2019-01-25T14:28:15.143Z,20.96
2019-01-25T14:33:19.202Z,20.89
2019-01-25T14:38:23.357Z,20.80
2019-01-25T14:43:27.410Z,20.73
2019-01-25T14:48:31.528Z,20.62
2019-01-25T14:53:35.553Z,20.63
2019-01-25T14:58:39.762Z,20.60
2019-01-25T15:03:43.853Z,20.56
2019-01-25T15:08:47.896Z,20.64
2019-01-25T15:13:52.148Z,20.67
2019-01-25T15:18:56.255Z,20.91
2019-01-25T15:24:00.404Z,20.91
2019-01-25T15:29:04.635Z,20.92
2019-01-25T15:34:09.127Z,20.81
2019-01-25T15:39:13.647Z,20.88
2019-01-25T15:44:17.972Z,20.81
2019-01-25T15:49:22.282Z,20.78
2019-01-25T15:54:26.547Z,20.65
2019-01-25T15:59:31.166Z,20.71
2019-01-25T16:04:35.413Z,20.75
2019-01-25T16:09:39.732Z,20.77
2019-01-25T16:14:43.956Z,20.89
2019-01-25T16:19:48.708Z,21.00
2019-01-25T16:24:53.350Z,20.98
2019-01-25T16:29:57.784Z,20.96
2019-01-25T16:35:02.019Z,20.84
2019-01-25T16:40:10.160Z,20.84
2019-01-25T16:45:17.985Z,20.86
2019-01-25T16:50:24.157Z,20.80
2019-01-25T16:55:30.187Z,20.97
2019-01-25T17:00:37.820Z,20.97
2019-01-25T17:05:42.972Z,20.88
2019-01-25T17:10:47.183Z,21.23
2019-01-25T17:15:51.284Z,21.23
2019-01-25T17:20:55.715Z,22.14
2019-01-25T17:26:00.009Z,22.44
2019-01-25T17:31:05.751Z,22.45
2019-01-25T17:36:11.244Z,22.30
2019-01-25T17:41:16.255Z,22.41
2019-01-25T17:46:20.859Z,22.38
2019-01-25T17:51:25.396Z,22.57
2019-01-25T17:56:29.939Z,22.55
2019-01-25T18:01:35.285Z,22.48
2019-01-25T18:06:40.138Z,22.23
2019-01-25T18:11:44.846Z,22.24
2019-01-25T18:16:49.758Z,22.20
2019-01-25T18:21:54.863Z,22.46
2019-01-25T18:27:00.038Z,22.36
2019-01-25T18:32:05.966Z,22.32
2019-01-25T18:37:11.546Z,22.35
2019-01-25T18:42:17.714Z,22.27
2019-01-25T18:47:22.933Z,22.27
2019-01-25T18:52:28.810Z,22.41
2019-01-25T18:57:35.515Z,22.52
2019-01-25T19:02:41.312Z,22.53
2019-01-25T19:07:47.076Z,22.44
2019-01-25T19:12:52.910Z,22.56
2019-01-25T19:17:58.708Z,22.46
2019-01-25T19:23:04.986Z,22.46
2019-01-25T19:28:10.377Z,22.49
2019-01-25T19:33:15.624Z,22.50
2019-01-25T19:38:23.042Z,22.43
2019-01-25T19:43:29.383Z,22.51
2019-01-25T19:48:34.963Z,22.36
2019-01-25T19:53:40.771Z,22.36
2019-01-25T19:58:46.342Z,22.46
2019-01-25T20:03:51.795Z,22.50
2019-01-25T20:08:57.411Z,22.44
2019-01-25T20:14:03.325Z,22.25
2019-01-25T20:19:09.986Z,22.10
2019-01-25T20:24:15.449Z,22.10
2019-01-25T20:29:21.026Z,21.88
2019-01-25T20:34:26.125Z,21.71
2019-01-25T20:39:31.415Z,21.67
2019-01-25T20:44:37.288Z,21.67
2019-01-25T20:49:42.811Z,21.58
2019-01-25T20:54:48.556Z,21.48
2019-01-25T20:59:53.709Z,21.32
2019-01-25T21:04:59.970Z,21.32
2019-01-25T21:10:07.361Z,21.22
2019-01-25T21:15:14.562Z,21.22
2019-01-25T21:20:34.689Z,21.19
2019-01-25T21:25:40.660Z,21.09
2019-01-25T21:30:45.831Z,21.06
2019-01-25T21:35:50.937Z,20.97
2019-01-25T21:40:56.715Z,21.06
2019-01-25T21:46:02.585Z,20.95
2019-01-25T21:51:08.611Z,20.98
2019-01-25T21:56:13.537Z,20.99
2019-01-25T22:01:20.851Z,20.99
2019-01-25T22:06:25.282Z,20.88
2019-01-25T22:11:29.790Z,20.84
2019-01-25T22:16:34.770Z,20.96
2019-01-25T22:21:39.280Z,20.83
2019-01-25T22:26:43.755Z,20.89
2019-01-25T22:31:48.246Z,20.79
2019-01-25T22:36:52.601Z,20.79
2019-01-25T22:41:56.999Z,20.88
2019-01-25T22:47:01.148Z,21.00
2019-01-25T22:52:06.253Z,21.03
2019-01-25T22:57:10.515Z,20.99
2019-01-25T23:02:14.891Z,21.01
2019-01-25T23:07:24.930Z,21.01
2019-01-25T23:12:29.192Z,20.93
2019-01-25T23:17:33.442Z,20.93
2019-01-25T23:22:39.343Z,20.92
2019-01-25T23:27:43.616Z,21.02
2019-01-25T23:32:48.015Z,21.00
2019-01-25T23:37:52.272Z,21.02
2019-01-25T23:42:56.578Z,21.00
2019-01-25T23:48:00.868Z,20.97
2019-01-25T23:53:05.193Z,21.00
2019-01-25T23:58:09.362Z,20.97
